Time;durP1;ratioP1;P1;durP2;ratioP2;P2;SDS_P1;SDS_P2;PMS_P1;PMS_P2;Temp;Humidity;BMP_temperature;BMP_pressure;BME280_temperature;BME280_humidity;BME280_pressure;Samples;Min_cycle;Max_cycle;Signal;HPM_P1;HPM_P2
2021/09/08 00:00:59;;;;;;;0.10;0.10;;;;;;;;;;5005754;28;20265;-61
2021/09/08 00:03:26;;;;;;;0.00;0.00;;;;;;;;;;5014817;28;20304;-60
2021/09/08 00:05:54;;;;;;;0.10;0.10;;;;;;;;;;5010403;28;20244;-61
2021/09/08 00:08:21;;;;;;;0.00;0.00;;;;;;;;;;5005946;28;20202;-61
2021/09/08 00:10:47;;;;;;;0.10;0.10;;;;;;;;;;5019358;28;20504;-60
2021/09/08 00:13:14;;;;;;;0.10;0.10;;;;;;;;;;5019697;28;20214;-60
2021/09/08 00:15:40;;;;;;;0.10;0.10;;;;;;;;;;5017231;28;20207;-61
2021/09/08 00:18:07;;;;;;;0.00;0.00;;;;;;;;;;5015027;28;20455;-61
2021/09/08 00:20:33;;;;;;;0.10;0.10;;;;;;;;;;5025473;28;20205;-60
2021/09/08 00:22:59;;;;;;;0.00;0.00;;;;;;;;;;5012855;28;20268;-61
2021/09/08 00:25:27;;;;;;;0.10;0.10;;;;;;;;;;5019194;28;20206;-61
2021/09/08 00:27:53;;;;;;;0.10;0.10;;;;;;;;;;5005384;28;20257;-61
2021/09/08 00:30:20;;;;;;;0.10;0.10;;;;;;;;;;5005418;28;20211;-61
2021/09/08 00:32:46;;;;;;;0.10;0.10;;;;;;;;;;5013837;28;20206;-62
2021/09/08 00:35:13;;;;;;;0.10;0.10;;;;;;;;;;5011796;28;20393;-61
2021/09/08 00:37:41;;;;;;;0.10;0.10;;;;;;;;;;5030674;28;20449;-60
2021/09/08 00:40:09;;;;;;;0.40;0.40;;;;;;;;;;5018052;28;20356;-61
2021/09/08 00:42:36;;;;;;;0.10;0.10;;;;;;;;;;5019171;28;20246;-61
2021/09/08 00:45:03;;;;;;;0.10;0.10;;;;;;;;;;5005201;28;20544;-61
2021/09/08 00:47:30;;;;;;;0.08;0.08;;;;;;;;;;5022537;28;20207;-61
2021/09/08 00:49:57;;;;;;;0.10;0.10;;;;;;;;;;5014652;28;20231;-62
2021/09/08 00:52:24;;;;;;;0.05;0.05;;;;;;;;;;5006885;28;20210;-61
2021/09/08 00:54:51;;;;;;;0.10;0.10;;;;;;;;;;5024479;28;20254;-61
2021/09/08 00:57:20;;;;;;;0.03;0.03;;;;;;;;;;5010283;28;20408;-61
2021/09/08 00:59:48;;;;;;;0.00;0.00;;;;;;;;;;5024183;28;20226;-61
2021/09/08 01:02:15;;;;;;;0.10;0.10;;;;;;;;;;5011196;28;20506;-61
2021/09/08 01:04:41;;;;;;;0.10;0.10;;;;;;;;;;5018063;28;20242;-61
2021/09/08 01:07:09;;;;;;;0.10;0.10;;;;;;;;;;5015950;28;20201;-61
2021/09/08 01:09:35;;;;;;;0.10;0.10;;;;;;;;;;5010174;28;20201;-61
2021/09/08 01:12:02;;;;;;;0.00;0.00;;;;;;;;;;5014377;28;20556;-61
2021/09/08 01:14:29;;;;;;;0.00;0.00;;;;;;;;;;5020074;28;20513;-60
2021/09/08 01:16:58;;;;;;;0.00;0.00;;;;;;;;;;5023986;28;20208;-60
2021/09/08 01:19:24;;;;;;;0.00;0.00;;;;;;;;;;5009480;28;20262;-62
2021/09/08 01:21:52;;;;;;;0.10;0.10;;;;;;;;;;5004347;28;20218;-61
2021/09/08 01:24:22;;;;;;;0.10;0.10;;;;;;;;;;5004190;28;20219;-61
2021/09/08 01:26:49;;;;;;;0.10;0.10;;;;;;;;;;5004355;28;20216;-61
2021/09/08 01:29:15;;;;;;;0.10;0.10;;;;;;;;;;5004254;28;20206;-61
2021/09/08 01:31:42;;;;;;;0.10;0.10;;;;;;;;;;5004407;28;20221;-61
2021/09/08 01:34:09;;;;;;;0.10;0.10;;;;;;;;;;5004026;28;20426;-61
2021/09/08 01:36:39;;;;;;;0.08;0.08;;;;;;;;;;5004006;28;20206;-62
2021/09/08 01:39:06;;;;;;;0.00;0.00;;;;;;;;;;5017607;28;20228;-62
2021/09/08 01:41:35;;;;;;;0.10;0.10;;;;;;;;;;5003937;28;20218;-61
2021/09/08 01:44:02;;;;;;;0.10;0.10;;;;;;;;;;5007380;28;20242;-61
2021/09/08 01:46:29;;;;;;;0.00;0.00;;;;;;;;;;5023568;28;20231;-62
2021/09/08 01:48:55;;;;;;;0.10;0.10;;;;;;;;;;5007505;28;20206;-61
2021/09/08 01:51:22;;;;;;;0.03;0.03;;;;;;;;;;5003721;28;20276;-61
2021/09/08 01:53:49;;;;;;;0.10;0.10;;;;;;;;;;5017617;28;20205;-61
2021/09/08 01:56:16;;;;;;;0.10;0.10;;;;;;;;;;5017362;28;20408;-61
2021/09/08 01:58:45;;;;;;;0.10;0.10;;;;;;;;;;5026541;28;20230;-62
2021/09/08 02:01:12;;;;;;;0.07;0.07;;;;;;;;;;5004601;28;20233;-60
2021/09/08 02:03:39;;;;;;;0.10;0.10;;;;;;;;;;5014224;28;20610;-60
2021/09/08 02:06:18;;;;;;;0.05;0.05;;;;;;;;;;5015537;28;20284;-61
2021/09/08 02:08:45;;;;;;;0.00;0.00;;;;;;;;;;5007807;28;20251;-60
2021/09/08 02:11:12;;;;;;;0.10;0.10;;;;;;;;;;5017323;28;20208;-61
2021/09/08 02:13:38;;;;;;;0.10;0.10;;;;;;;;;;5006629;28;20206;-61
2021/09/08 02:16:06;;;;;;;0.00;0.00;;;;;;;;;;5023063;28;20210;-60
2021/09/08 02:18:32;;;;;;;0.10;0.10;;;;;;;;;;5022899;28;20203;-61
2021/09/08 02:20:59;;;;;;;0.10;0.10;;;;;;;;;;5022894;28;20379;-61
2021/09/08 02:23:25;;;;;;;0.08;0.08;;;;;;;;;;5009289;28;20211;-60
2021/09/08 02:25:52;;;;;;;0.00;0.00;;;;;;;;;;5016902;28;20209;-61
2021/09/08 02:28:20;;;;;;;0.10;0.10;;;;;;;;;;5015389;28;20205;-60
2021/09/08 02:30:48;;;;;;;0.10;0.10;;;;;;;;;;5004621;28;20426;-60
2021/09/08 02:33:16;;;;;;;0.10;0.10;;;;;;;;;;5013753;28;20208;-61
2021/09/08 02:35:42;;;;;;;0.00;0.00;;;;;;;;;;5008907;28;20224;-61
2021/09/08 02:38:08;;;;;;;0.08;0.08;;;;;;;;;;5014065;28;20552;-61
2021/09/08 02:40:34;;;;;;;0.10;0.10;;;;;;;;;;5016681;28;20313;-61
2021/09/08 02:43:01;;;;;;;0.10;0.10;;;;;;;;;;5003076;28;20231;-61
2021/09/08 02:45:27;;;;;;;0.10;0.10;;;;;;;;;;5003159;28;20436;-61
2021/09/08 02:47:53;;;;;;;0.10;0.10;;;;;;;;;;5012007;28;20273;-61
2021/09/08 02:50:21;;;;;;;0.10;0.10;;;;;;;;;;5003309;28;20248;-61
2021/09/08 02:52:47;;;;;;;0.10;0.10;;;;;;;;;;5019563;28;20212;-62
2021/09/08 02:55:14;;;;;;;0.07;0.07;;;;;;;;;;5013606;28;20208;-62
2021/09/08 02:57:40;;;;;;;0.00;0.00;;;;;;;;;;5017866;28;20287;-61
2021/09/08 03:00:07;;;;;;;0.10;0.10;;;;;;;;;;5022443;28;20268;-61
2021/09/08 03:02:34;;;;;;;0.03;0.03;;;;;;;;;;5025463;28;20245;-61
2021/09/08 03:05:00;;;;;;;0.10;0.10;;;;;;;;;;5020785;28;20233;-61
2021/09/08 03:07:28;;;;;;;0.10;0.10;;;;;;;;;;5030089;28;20207;-61
2021/09/08 03:09:55;;;;;;;0.00;0.00;;;;;;;;;;5010627;28;20256;-61
2021/09/08 03:12:22;;;;;;;0.00;0.00;;;;;;;;;;5016975;28;20207;-61
2021/09/08 03:14:48;;;;;;;0.10;0.10;;;;;;;;;;5024035;28;20276;-61
2021/09/08 03:17:14;;;;;;;0.10;0.10;;;;;;;;;;5021096;28;20246;-61
2021/09/08 03:19:41;;;;;;;0.00;0.00;;;;;;;;;;5020239;28;20269;-60
2021/09/08 03:22:07;;;;;;;0.10;0.10;;;;;;;;;;5006680;28;20206;-62
2021/09/08 03:24:35;;;;;;;0.10;0.10;;;;;;;;;;5006769;28;20454;-60
2021/09/08 03:27:03;;;;;;;0.10;0.10;;;;;;;;;;5020201;28;20214;-60
2021/09/08 03:29:30;;;;;;;0.10;0.10;;;;;;;;;;5006332;28;20520;-60
2021/09/08 03:31:56;;;;;;;0.10;0.10;;;;;;;;;;5020156;28;20259;-61
2021/09/08 03:34:23;;;;;;;0.10;0.10;;;;;;;;;;5022824;28;20318;-60
2021/09/08 03:36:49;;;;;;;0.03;0.03;;;;;;;;;;5031203;28;20412;-62
2021/09/08 03:39:16;;;;;;;0.10;0.10;;;;;;;;;;5019335;28;20223;-60
2021/09/08 03:41:44;;;;;;;0.10;0.10;;;;;;;;;;5006066;28;20233;-62
2021/09/08 03:44:11;;;;;;;0.00;0.00;;;;;;;;;;5038683;28;20215;-61
2021/09/08 03:46:37;;;;;;;2.37;2.33;;;;;;;;;;5015058;28;20205;-62
2021/09/08 03:49:04;;;;;;;0.03;0.03;;;;;;;;;;5020184;28;20278;-63
2021/09/08 03:51:31;;;;;;;0.10;0.10;;;;;;;;;;5015225;28;20205;-61
2021/09/08 03:53:59;;;;;;;0.07;0.07;;;;;;;;;;5024212;28;20446;-62
2021/09/08 03:56:25;;;;;;;0.00;0.00;;;;;;;;;;5013725;28;20392;-60
2021/09/08 03:58:54;;;;;;;0.10;0.10;;;;;;;;;;5025287;28;20243;-60
2021/09/08 04:01:20;;;;;;;0.10;0.10;;;;;;;;;;5032361;28;20223;-61
2021/09/08 04:03:47;;;;;;;0.10;0.10;;;;;;;;;;5018112;28;20500;-61
2021/09/08 04:06:13;;;;;;;0.10;0.10;;;;;;;;;;5024756;28;20209;-61
2021/09/08 04:08:39;;;;;;;0.10;0.10;;;;;;;;;;5013884;28;20402;-60
2021/09/08 04:11:06;;;;;;;0.10;0.10;;;;;;;;;;5005570;28;20206;-61
2021/09/08 04:13:33;;;;;;;0.00;0.00;;;;;;;;;;5009758;28;20242;-61
2021/09/08 04:16:01;;;;;;;0.00;0.00;;;;;;;;;;5014352;28;20505;-61
2021/09/08 04:18:27;;;;;;;0.07;0.07;;;;;;;;;;5005420;28;20234;-60
2021/09/08 04:20:54;;;;;;;0.05;0.05;;;;;;;;;;5006757;28;20237;-61
2021/09/08 04:23:20;;;;;;;0.10;0.10;;;;;;;;;;5022836;28;20218;-61
2021/09/08 04:25:47;;;;;;;0.03;0.03;;;;;;;;;;5014584;28;20206;-61
2021/09/08 04:28:13;;;;;;;0.03;0.03;;;;;;;;;;5017666;28;20250;-61
2021/09/08 04:30:39;;;;;;;0.03;0.03;;;;;;;;;;5025379;28;20251;-62
2021/09/08 04:33:07;;;;;;;0.07;0.07;;;;;;;;;;5023729;28;20212;-61
2021/09/08 04:35:34;;;;;;;0.10;0.10;;;;;;;;;;5005854;28;20210;-61
2021/09/08 04:38:00;;;;;;;0.10;0.10;;;;;;;;;;5005054;28;20204;-65
2021/09/08 04:40:27;;;;;;;0.03;0.03;;;;;;;;;;5032799;28;20545;-60
2021/09/08 04:42:53;;;;;;;0.10;0.10;;;;;;;;;;5005144;28;20214;-62
2021/09/08 04:45:20;;;;;;;0.10;0.10;;;;;;;;;;5004944;28;20215;-62
2021/09/08 04:47:47;;;;;;;0.07;0.07;;;;;;;;;;5015020;28;20335;-61
2021/09/08 04:50:15;;;;;;;0.10;0.10;;;;;;;;;;5026700;28;20402;-62
2021/09/08 04:52:41;;;;;;;0.10;0.10;;;;;;;;;;5027622;28;20229;-61
2021/09/08 04:55:08;;;;;;;0.10;0.10;;;;;;;;;;5005340;28;20204;-61
2021/09/08 04:57:34;;;;;;;0.10;0.10;;;;;;;;;;5024464;28;20277;-62
2021/09/08 05:00:00;;;;;;;0.10;0.10;;;;;;;;;;5011578;28;20508;-61
2021/09/08 05:02:27;;;;;;;0.10;0.10;;;;;;;;;;5037126;28;20203;-61
2021/09/08 05:04:53;;;;;;;0.10;0.10;;;;;;;;;;5013268;28;20247;-60
2021/09/08 05:07:21;;;;;;;0.10;0.10;;;;;;;;;;5004637;28;20250;-61
2021/09/08 05:09:47;;;;;;;0.00;0.00;;;;;;;;;;5004547;28;20267;-60
2021/09/08 05:12:13;;;;;;;0.10;0.10;;;;;;;;;;5004819;28;20456;-61
2021/09/08 05:14:40;;;;;;;0.10;0.10;;;;;;;;;;5004498;28;20212;-60
2021/09/08 05:17:07;;;;;;;0.10;0.10;;;;;;;;;;5004552;28;20379;-61
2021/09/08 05:19:34;;;;;;;0.10;0.10;;;;;;;;;;5004429;28;20213;-61
2021/09/08 05:22:00;;;;;;;0.10;0.10;;;;;;;;;;5012249;28;20238;-62
2021/09/08 05:24:28;;;;;;;0.10;0.10;;;;;;;;;;5016704;28;20209;-61
2021/09/08 05:26:54;;;;;;;0.10;0.10;;;;;;;;;;5018217;28;20269;-61
2021/09/08 05:29:20;;;;;;;0.10;0.10;;;;;;;;;;5014350;28;20201;-61
2021/09/08 05:31:46;;;;;;;0.10;0.10;;;;;;;;;;5025008;28;20212;-61
2021/09/08 05:34:13;;;;;;;0.10;0.10;;;;;;;;;;5023641;28;20507;-62
2021/09/08 05:36:39;;;;;;;0.10;0.10;;;;;;;;;;5023941;28;20205;-61
2021/09/08 05:39:07;;;;;;;0.93;0.93;;;;;;;;;;5015286;28;20203;-61
2021/09/08 05:41:35;;;;;;;0.10;0.10;;;;;;;;;;5009620;28;20232;-61
2021/09/08 05:44:01;;;;;;;0.10;0.10;;;;;;;;;;5018021;28;20208;-62
2021/09/08 05:46:28;;;;;;;0.10;0.10;;;;;;;;;;5016165;28;20211;-61
2021/09/08 05:48:54;;;;;;;0.00;0.00;;;;;;;;;;5016020;28;20219;-61
2021/09/08 05:51:23;;;;;;;0.10;0.10;;;;;;;;;;5016290;28;20261;-64
2021/09/08 05:53:50;;;;;;;0.00;0.00;;;;;;;;;;5009577;28;20218;-61
2021/09/08 05:56:16;;;;;;;0.10;0.10;;;;;;;;;;5016133;28;20304;-62
2021/09/08 05:58:43;;;;;;;0.10;0.10;;;;;;;;;;5006712;28;20393;-61
2021/09/08 06:01:10;;;;;;;0.00;0.00;;;;;;;;;;5013348;28;20228;-62
2021/09/08 06:03:36;;;;;;;0.10;0.10;;;;;;;;;;5014106;28;20246;-62
2021/09/08 06:06:03;;;;;;;0.03;0.03;;;;;;;;;;5017004;28;20206;-62
2021/09/08 06:08:30;;;;;;;0.00;0.00;;;;;;;;;;5014303;28;20212;-62
2021/09/08 06:10:56;;;;;;;0.10;0.10;;;;;;;;;;5012251;28;20385;-62
2021/09/08 06:13:23;;;;;;;0.10;0.10;;;;;;;;;;5022023;28;20254;-61
2021/09/08 06:15:50;;;;;;;0.10;0.10;;;;;;;;;;5014659;28;20216;-61
2021/09/08 06:18:17;;;;;;;0.10;0.10;;;;;;;;;;5015672;28;20208;-61
2021/09/08 06:20:43;;;;;;;0.10;0.10;;;;;;;;;;5009819;28;20454;-61
2021/09/08 06:23:11;;;;;;;0.10;0.10;;;;;;;;;;5018551;28;20204;-60
2021/09/08 06:25:37;;;;;;;0.07;0.07;;;;;;;;;;5019094;28;20208;-62
2021/09/08 06:28:04;;;;;;;0.07;0.07;;;;;;;;;;5022642;28;20204;-62
2021/09/08 06:30:30;;;;;;;0.10;0.10;;;;;;;;;;5020385;28;20209;-61
2021/09/08 06:32:57;;;;;;;0.03;0.03;;;;;;;;;;5020752;28;20248;-61
2021/09/08 06:35:24;;;;;;;0.10;0.10;;;;;;;;;;5013508;28;20205;-62
2021/09/08 06:37:50;;;;;;;0.10;0.10;;;;;;;;;;5004278;28;20219;-61
2021/09/08 06:40:17;;;;;;;0.00;0.00;;;;;;;;;;5014152;28;20228;-61
2021/09/08 06:42:43;;;;;;;0.00;0.00;;;;;;;;;;5015792;28;20312;-61
2021/09/08 06:45:11;;;;;;;0.10;0.10;;;;;;;;;;5015546;28;20228;-63
2021/09/08 06:47:37;;;;;;;0.10;0.10;;;;;;;;;;5018171;28;20287;-61
2021/09/08 06:50:07;;;;;;;0.10;0.10;;;;;;;;;;5011181;28;20534;-62
2021/09/08 06:52:34;;;;;;;0.10;0.10;;;;;;;;;;5013655;28;20231;-62
2021/09/08 06:55:00;;;;;;;0.10;0.10;;;;;;;;;;5011102;28;20337;-62
2021/09/08 06:57:27;;;;;;;0.00;0.00;;;;;;;;;;5028356;28;20241;-61
2021/09/08 06:59:53;;;;;;;0.00;0.00;;;;;;;;;;5016826;28;20249;-61
2021/09/08 07:02:19;;;;;;;0.00;0.00;;;;;;;;;;5016887;28;20215;-63
2021/09/08 07:04:45;;;;;;;0.10;0.10;;;;;;;;;;5020239;28;20232;-62
2021/09/08 07:07:13;;;;;;;0.05;0.05;;;;;;;;;;5029774;28;20565;-61
2021/09/08 07:09:39;;;;;;;0.00;0.00;;;;;;;;;;5027398;28;20207;-62
2021/09/08 07:12:06;;;;;;;0.08;0.08;;;;;;;;;;5022502;28;20448;-61
2021/09/08 07:14:33;;;;;;;0.00;0.00;;;;;;;;;;5022034;28;20264;-61
2021/09/08 07:16:59;;;;;;;0.00;0.00;;;;;;;;;;5012140;28;20504;-61
2021/09/08 07:19:26;;;;;;;0.00;0.00;;;;;;;;;;5018406;28;20549;-62
2021/09/08 07:21:52;;;;;;;0.00;0.00;;;;;;;;;;5018235;28;20223;-62
2021/09/08 07:24:20;;;;;;;0.00;0.00;;;;;;;;;;5023434;28;20216;-62
2021/09/08 07:26:46;;;;;;;0.00;0.00;;;;;;;;;;5026493;28;20265;-66
2021/09/08 07:29:12;;;;;;;0.00;0.00;;;;;;;;;;5020149;28;20457;-65
2021/09/08 07:31:39;;;;;;;0.00;0.00;;;;;;;;;;5008185;28;20204;-64
2021/09/08 07:34:05;;;;;;;0.08;0.08;;;;;;;;;;5027149;28;20239;-65
2021/09/08 07:36:31;;;;;;;0.00;0.00;;;;;;;;;;5014261;28;20246;-67
2021/09/08 07:38:57;;;;;;;0.00;0.00;;;;;;;;;;5013984;28;20297;-65
2021/09/08 07:41:25;;;;;;;0.00;0.00;;;;;;;;;;5017876;28;20409;-66
2021/09/08 07:43:51;;;;;;;0.10;0.10;;;;;;;;;;5012842;28;20210;-67
2021/09/08 07:46:17;;;;;;;0.00;0.00;;;;;;;;;;5033745;28;20358;-66
2021/09/08 07:48:43;;;;;;;0.00;0.00;;;;;;;;;;5016690;28;20210;-65
2021/09/08 07:51:10;;;;;;;0.10;0.10;;;;;;;;;;5017995;28;20216;-66
2021/09/08 07:53:36;;;;;;;0.10;0.10;;;;;;;;;;5040038;28;20213;-64
2021/09/08 07:56:03;;;;;;;0.10;0.10;;;;;;;;;;5026722;28;20206;-66
2021/09/08 07:58:30;;;;;;;0.00;0.00;;;;;;;;;;5020393;28;20390;-66
2021/09/08 08:00:57;;;;;;;0.10;0.10;;;;;;;;;;5024413;28;20221;-65
2021/09/08 08:03:23;;;;;;;0.00;0.00;;;;;;;;;;5024445;28;20267;-66
2021/09/08 08:05:49;;;;;;;0.00;0.00;;;;;;;;;;5024165;28;20240;-66
2021/09/08 08:08:16;;;;;;;0.03;0.03;;;;;;;;;;5024434;28;20430;-67
2021/09/08 08:10:42;;;;;;;0.00;0.00;;;;;;;;;;5025130;28;20416;-66
2021/09/08 08:13:09;;;;;;;0.00;0.00;;;;;;;;;;5036388;28;20205;-64
2021/09/08 08:15:36;;;;;;;0.10;0.10;;;;;;;;;;5006052;28;20213;-66
2021/09/08 08:18:03;;;;;;;0.08;0.08;;;;;;;;;;5006314;28;20214;-68
2021/09/08 08:20:29;;;;;;;0.00;0.00;;;;;;;;;;5019640;28;20256;-67
2021/09/08 08:22:56;;;;;;;0.08;0.08;;;;;;;;;;5017643;28;20255;-66
2021/09/08 08:25:27;;;;;;;0.00;0.00;;;;;;;;;;5026455;28;20202;-66
2021/09/08 08:27:54;;;;;;;0.00;0.00;;;;;;;;;;5026635;28;20522;-67
2021/09/08 08:30:20;;;;;;;0.00;0.00;;;;;;;;;;5035465;28;20205;-66
2021/09/08 08:32:47;;;;;;;0.10;0.10;;;;;;;;;;5033646;28;20259;-67
2021/09/08 08:35:14;;;;;;;0.00;0.00;;;;;;;;;;5022023;28;20241;-67
2021/09/08 08:37:41;;;;;;;0.10;0.10;;;;;;;;;;5017939;28;20528;-66
2021/09/08 08:40:08;;;;;;;0.00;0.00;;;;;;;;;;5015689;28;20208;-66
2021/09/08 08:42:35;;;;;;;0.00;0.00;;;;;;;;;;5012210;28;20320;-66
2021/09/08 08:45:01;;;;;;;0.10;0.10;;;;;;;;;;5024340;28;20422;-68
2021/09/08 08:47:27;;;;;;;0.00;0.00;;;;;;;;;;5024975;28;20204;-70
2021/09/08 08:49:55;;;;;;;0.00;0.00;;;;;;;;;;5024233;28;20279;-70
2021/09/08 08:52:22;;;;;;;0.00;0.00;;;;;;;;;;5024427;28;20211;-69
2021/09/08 08:54:51;;;;;;;0.10;0.10;;;;;;;;;;5024944;28;20456;-69
2021/09/08 08:57:18;;;;;;;0.05;0.05;;;;;;;;;;5024360;28;20212;-70
2021/09/08 08:59:45;;;;;;;0.00;0.00;;;;;;;;;;5030571;28;20200;-69
2021/09/08 09:02:19;;;;;;;0.00;0.00;;;;;;;;;;5026612;28;20225;-69
2021/09/08 09:04:45;;;;;;;0.00;0.00;;;;;;;;;;5013774;28;20430;-61
2021/09/08 09:07:22;;;;;;;0.00;0.00;;;;;;;;;;5022764;28;20208;-62
2021/09/08 09:09:50;;;;;;;0.00;0.00;;;;;;;;;;5023129;28;20197;-63
2021/09/08 09:12:17;;;;;;;0.00;0.00;;;;;;;;;;5023906;28;20206;-63
2021/09/08 09:14:43;;;;;;;0.00;0.00;;;;;;;;;;5037978;28;20247;-63
2021/09/08 09:17:11;;;;;;;0.00;0.00;;;;;;;;;;5024577;28;20331;-61
2021/09/08 09:19:45;;;;;;;0.03;0.03;;;;;;;;;;5011745;28;20206;-62
2021/09/08 09:22:11;;;;;;;0.00;0.00;;;;;;;;;;5010426;28;20535;-61
2021/09/08 09:24:41;;;;;;;0.00;0.00;;;;;;;;;;5024284;28;20201;-61
2021/09/08 09:27:11;;;;;;;0.00;0.00;;;;;;;;;;5017589;28;20260;-61
2021/09/08 09:29:42;;;;;;;0.10;0.10;;;;;;;;;;5024397;28;20212;-62
2021/09/08 09:32:10;;;;;;;0.03;0.03;;;;;;;;;;5021468;28;20206;-61
2021/09/08 09:34:38;;;;;;;0.00;0.00;;;;;;;;;;5024062;28;20273;-62
2021/09/08 09:37:04;;;;;;;0.00;0.00;;;;;;;;;;5018636;28;20201;-61
2021/09/08 09:39:32;;;;;;;0.00;0.00;;;;;;;;;;5013988;28;20201;-61
2021/09/08 09:41:59;;;;;;;0.00;0.00;;;;;;;;;;5023711;28;20221;-61
2021/09/08 09:44:30;;;;;;;0.10;0.10;;;;;;;;;;5023817;28;20206;-60
2021/09/08 09:46:57;;;;;;;0.00;0.00;;;;;;;;;;5027649;28;20201;-62
2021/09/08 09:49:25;;;;;;;0.00;0.00;;;;;;;;;;5023508;28;20232;-62
2021/09/08 09:51:54;;;;;;;0.00;0.00;;;;;;;;;;5017720;28;20213;-62
2021/09/08 09:54:20;;;;;;;0.00;0.00;;;;;;;;;;5023608;28;20206;-62
2021/09/08 09:56:47;;;;;;;0.00;0.00;;;;;;;;;;5017020;28;20209;-62
2021/09/08 09:59:14;;;;;;;0.00;0.00;;;;;;;;;;5020465;28;20205;-61
2021/09/08 10:01:41;;;;;;;0.00;0.00;;;;;;;;;;5018298;28;20464;-62
2021/09/08 10:04:08;;;;;;;0.10;0.10;;;;;;;;;;5013640;28;20241;-64
2021/09/08 10:06:35;;;;;;;0.00;0.00;;;;;;;;;;5012847;28;20251;-62
2021/09/08 10:09:01;;;;;;;0.00;0.00;;;;;;;;;;5023526;28;20271;-61
2021/09/08 10:11:32;;;;;;;0.00;0.00;;;;;;;;;;5022591;28;20213;-61
2021/09/08 10:14:03;;;;;;;0.00;0.00;;;;;;;;;;5007640;28;20481;-61
2021/09/08 10:16:31;;;;;;;0.00;0.00;;;;;;;;;;5020161;28;20202;-62
2021/09/08 10:18:57;;;;;;;0.00;0.00;;;;;;;;;;5015777;28;20497;-60
2021/09/08 10:21:24;;;;;;;0.00;0.00;;;;;;;;;;5016477;28;20225;-61
2021/09/08 10:23:54;;;;;;;0.00;0.00;;;;;;;;;;5019850;28;20220;-61
2021/09/08 10:26:27;;;;;;;0.03;0.03;;;;;;;;;;5020766;28;20384;-61
2021/09/08 10:28:54;;;;;;;0.00;0.00;;;;;;;;;;5022817;28;20204;-61
2021/09/08 10:31:20;;;;;;;0.00;0.00;;;;;;;;;;5022900;28;20500;-61
2021/09/08 10:33:48;;;;;;;0.00;0.00;;;;;;;;;;5023142;28;20259;-61
2021/09/08 10:36:14;;;;;;;0.00;0.00;;;;;;;;;;5022873;28;20263;-62
2021/09/08 10:38:41;;;;;;;0.00;0.00;;;;;;;;;;5023130;28;20212;-61
2021/09/08 10:41:09;;;;;;;0.00;0.00;;;;;;;;;;5022991;28;20208;-61
2021/09/08 10:43:36;;;;;;;0.00;0.00;;;;;;;;;;5023015;28;20205;-61
2021/09/08 10:46:03;;;;;;;0.00;0.00;;;;;;;;;;5022646;28;20392;-62
2021/09/08 10:48:36;;;;;;;0.08;0.08;;;;;;;;;;5023182;28;20555;-62
2021/09/08 10:51:05;;;;;;;0.00;0.00;;;;;;;;;;5022786;28;20600;-63
2021/09/08 10:53:33;;;;;;;0.00;0.00;;;;;;;;;;5022510;28;20414;-61
2021/09/08 10:55:59;;;;;;;0.00;0.00;;;;;;;;;;5027943;28;20240;-64
2021/09/08 10:58:54;;;;;;;0.00;0.00;;;;;;;;;;5018049;28;20202;-61
2021/09/08 11:01:20;;;;;;;0.00;0.00;;;;;;;;;;5013702;28;20205;-61
2021/09/08 11:03:46;;;;;;;0.03;0.03;;;;;;;;;;5015025;28;20288;-61
2021/09/08 11:06:14;;;;;;;0.00;0.00;;;;;;;;;;5016267;28;20253;-60
2021/09/08 11:08:40;;;;;;;0.00;0.00;;;;;;;;;;5011280;28;20307;-63
2021/09/08 11:11:08;;;;;;;0.00;0.00;;;;;;;;;;5010980;28;20265;-61
2021/09/08 11:13:34;;;;;;;0.00;0.00;;;;;;;;;;5018048;28;20202;-62
2021/09/08 11:16:00;;;;;;;0.00;0.00;;;;;;;;;;5016781;28;20268;-61
2021/09/08 11:18:33;;;;;;;0.00;0.00;;;;;;;;;;5018517;28;20244;-62
2021/09/08 11:21:03;;;;;;;0.00;0.00;;;;;;;;;;5021796;28;20262;-61
2021/09/08 11:23:31;;;;;;;0.00;0.00;;;;;;;;;;5015264;28;20229;-61
2021/09/08 11:26:04;;;;;;;0.22;0.22;;;;;;;;;;5035855;28;20392;-62
2021/09/08 11:28:31;;;;;;;0.00;0.00;;;;;;;;;;5026440;28;20263;-62
2021/09/08 11:30:57;;;;;;;0.00;0.00;;;;;;;;;;5030397;28;20202;-60
2021/09/08 11:33:23;;;;;;;0.00;0.00;;;;;;;;;;5026230;28;20202;-62
2021/09/08 11:35:50;;;;;;;0.00;0.00;;;;;;;;;;5024559;28;20489;-61
2021/09/08 11:38:17;;;;;;;0.00;0.00;;;;;;;;;;5018602;28;20209;-62
2021/09/08 11:40:47;;;;;;;0.00;0.00;;;;;;;;;;5021570;28;20297;-64
2021/09/08 11:43:13;;;;;;;0.88;0.88;;;;;;;;;;5021118;28;20224;-61
2021/09/08 11:45:40;;;;;;;0.20;0.20;;;;;;;;;;5020076;28;20269;-61
2021/09/08 11:48:06;;;;;;;0.00;0.00;;;;;;;;;;5020066;28;20309;-62
2021/09/08 11:50:33;;;;;;;0.00;0.00;;;;;;;;;;5033642;28;20520;-61
2021/09/08 11:53:00;;;;;;;0.00;0.00;;;;;;;;;;5024724;28;20197;-61
2021/09/08 11:55:28;;;;;;;0.00;0.00;;;;;;;;;;5012371;28;20276;-61
2021/09/08 11:57:55;;;;;;;0.00;0.00;;;;;;;;;;5018596;28;20256;-64
2021/09/08 12:00:22;;;;;;;0.00;0.00;;;;;;;;;;5017200;28;20390;-64
2021/09/08 12:02:48;;;;;;;0.00;0.00;;;;;;;;;;5016218;28;20416;-63
2021/09/08 12:05:21;;;;;;;0.65;0.65;;;;;;;;;;5020060;28;20264;-68
2021/09/08 12:07:47;;;;;;;0.10;0.10;;;;;;;;;;5018706;28;20252;-67
2021/09/08 12:10:14;;;;;;;0.00;0.00;;;;;;;;;;5023470;28;20212;-66
2021/09/08 12:12:41;;;;;;;0.00;0.00;;;;;;;;;;5021656;28;20197;-63
2021/09/08 12:15:09;;;;;;;0.00;0.00;;;;;;;;;;5018751;28;20273;-63
2021/09/08 12:17:36;;;;;;;0.00;0.00;;;;;;;;;;5020978;28;20205;-66
2021/09/08 12:20:03;;;;;;;0.00;0.00;;;;;;;;;;5018464;28;20201;-66
2021/09/08 12:22:33;;;;;;;0.00;0.00;;;;;;;;;;5025055;28;20226;-65
2021/09/08 12:25:00;;;;;;;0.00;0.00;;;;;;;;;;5019856;28;20248;-63
2021/09/08 12:27:28;;;;;;;0.00;0.00;;;;;;;;;;5011444;28;20214;-63
2021/09/08 12:29:55;;;;;;;0.00;0.00;;;;;;;;;;5022636;28;20212;-63
2021/09/08 12:32:22;;;;;;;0.00;0.00;;;;;;;;;;5035813;28;20259;-63
2021/09/08 12:34:50;;;;;;;0.00;0.00;;;;;;;;;;5020361;28;20214;-61
2021/09/08 12:37:17;;;;;;;0.00;0.00;;;;;;;;;;5024289;28;20289;-62
2021/09/08 12:39:44;;;;;;;0.00;0.00;;;;;;;;;;5031316;28;20202;-62
2021/09/08 12:42:17;;;;;;;0.00;0.00;;;;;;;;;;5021378;28;20232;-63
2021/09/08 12:44:44;;;;;;;0.00;0.00;;;;;;;;;;5011418;28;20198;-63
2021/09/08 12:47:11;;;;;;;0.00;0.00;;;;;;;;;;5022165;28;20256;-63
2021/09/08 12:49:39;;;;;;;0.00;0.00;;;;;;;;;;5037093;28;20217;-62
2021/09/08 12:52:07;;;;;;;0.00;0.00;;;;;;;;;;5038099;28;20223;-65
2021/09/08 12:54:34;;;;;;;0.00;0.00;;;;;;;;;;5011695;28;20236;-62
2021/09/08 12:57:00;;;;;;;0.00;0.00;;;;;;;;;;5023971;28;20201;-63
2021/09/08 12:59:29;;;;;;;1.13;1.02;;;;;;;;;;5024471;28;20289;-64
2021/09/08 13:01:55;;;;;;;0.00;0.00;;;;;;;;;;5024059;28;20213;-62
2021/09/08 13:04:21;;;;;;;0.00;0.00;;;;;;;;;;5013879;28;20243;-62
2021/09/08 13:06:49;;;;;;;0.00;0.00;;;;;;;;;;5015144;28;20209;-60
2021/09/08 13:09:16;;;;;;;0.00;0.00;;;;;;;;;;5024202;28;20213;-61
2021/09/08 13:11:43;;;;;;;0.00;0.00;;;;;;;;;;5023124;28;20535;-60
2021/09/08 13:14:09;;;;;;;0.00;0.00;;;;;;;;;;5037902;28;20264;-62
2021/09/08 13:16:36;;;;;;;0.75;0.60;;;;;;;;;;5014509;28;20489;-63
2021/09/08 13:19:03;;;;;;;0.00;0.00;;;;;;;;;;5016273;28;20202;-61
2021/09/08 13:21:30;;;;;;;0.00;0.00;;;;;;;;;;5018698;28;20225;-63
2021/09/08 13:23:57;;;;;;;0.00;0.00;;;;;;;;;;5018149;28;20530;-61
2021/09/08 13:26:24;;;;;;;0.00;0.00;;;;;;;;;;5016555;28;20205;-62
2021/09/08 13:28:50;;;;;;;0.00;0.00;;;;;;;;;;5024323;28;20202;-64
2021/09/08 13:31:16;;;;;;;0.00;0.00;;;;;;;;;;5013786;28;20210;-62
2021/09/08 13:33:43;;;;;;;0.00;0.00;;;;;;;;;;5006918;28;20201;-61
2021/09/08 13:36:09;;;;;;;0.00;0.00;;;;;;;;;;5019354;28;20202;-62
2021/09/08 13:38:35;;;;;;;0.00;0.00;;;;;;;;;;5010215;28;20210;-62
2021/09/08 13:41:03;;;;;;;0.00;0.00;;;;;;;;;;5016927;28;20206;-61
2021/09/08 13:43:30;;;;;;;0.00;0.00;;;;;;;;;;5030187;28;20266;-61
2021/09/08 13:45:56;;;;;;;0.00;0.00;;;;;;;;;;5042882;28;20203;-61
2021/09/08 13:48:23;;;;;;;0.00;0.00;;;;;;;;;;5032393;28;20233;-61
2021/09/08 13:50:49;;;;;;;0.00;0.00;;;;;;;;;;5009794;28;20205;-60
2021/09/08 13:53:15;;;;;;;0.00;0.00;;;;;;;;;;5014307;28;20268;-61
2021/09/08 13:55:42;;;;;;;0.00;0.00;;;;;;;;;;5023424;28;20209;-61
2021/09/08 13:58:10;;;;;;;0.00;0.00;;;;;;;;;;5028276;28;20254;-61
2021/09/08 14:00:37;;;;;;;0.00;0.00;;;;;;;;;;5018183;28;20248;-64
2021/09/08 14:03:03;;;;;;;0.00;0.00;;;;;;;;;;5037106;28;20221;-61
2021/09/08 14:05:29;;;;;;;0.00;0.00;;;;;;;;;;5023320;28;20235;-62
2021/09/08 14:07:57;;;;;;;0.00;0.00;;;;;;;;;;5023585;28;20201;-61
2021/09/08 14:13:27;;;;;;;0.00;0.00;;;;;;;;;;5015625;28;20362;-61
2021/09/08 14:15:54;;;;;;;0.00;0.00;;;;;;;;;;5023471;28;20209;-61
2021/09/08 14:18:20;;;;;;;0.00;0.00;;;;;;;;;;5023617;28;20252;-63
2021/09/08 14:20:47;;;;;;;0.00;0.00;;;;;;;;;;5031464;28;20201;-61
2021/09/08 14:23:13;;;;;;;0.00;0.00;;;;;;;;;;5042608;28;20230;-68
2021/09/08 14:25:39;;;;;;;0.00;0.00;;;;;;;;;;5029031;28;20208;-66
2021/09/08 14:28:06;;;;;;;0.10;0.10;;;;;;;;;;5010811;28;20210;-67
2021/09/08 14:30:33;;;;;;;0.03;0.03;;;;;;;;;;5003337;28;20202;-66
2021/09/08 14:33:00;;;;;;;0.00;0.00;;;;;;;;;;5011533;28;20471;-65
2021/09/08 14:35:26;;;;;;;0.00;0.00;;;;;;;;;;5016791;28;20406;-67
2021/09/08 14:37:52;;;;;;;0.00;0.00;;;;;;;;;;5009706;28;20202;-66
2021/09/08 14:40:19;;;;;;;0.00;0.00;;;;;;;;;;5009537;28;20202;-67
2021/09/08 14:42:46;;;;;;;0.00;0.00;;;;;;;;;;5017357;28;20567;-66
2021/09/08 14:45:14;;;;;;;0.00;0.00;;;;;;;;;;5017531;28;20210;-71